createdAt,value
2018-03-14T00:01:41.410Z,6.60
2018-03-14T00:04:42.658Z,6.60
2018-03-14T00:07:43.932Z,6.80
2018-03-14T00:10:45.172Z,6.80
2018-03-14T00:13:46.410Z,6.80
2018-03-14T00:16:47.642Z,6.80
2018-03-14T00:19:48.872Z,6.70
2018-03-14T00:22:50.099Z,6.90
2018-03-14T00:25:51.381Z,6.60
2018-03-14T00:28:52.667Z,6.60
2018-03-14T00:31:53.937Z,6.60
2018-03-14T00:35:02.277Z,6.60
2018-03-14T00:38:03.522Z,6.60
2018-03-14T00:41:04.804Z,6.60
2018-03-14T00:44:06.058Z,6.60
2018-03-14T00:47:07.314Z,6.50
2018-03-14T00:50:08.585Z,6.60
2018-03-14T00:53:09.853Z,6.60
2018-03-14T00:56:11.134Z,6.60
2018-03-14T00:59:13.167Z,6.70
2018-03-14T01:02:14.430Z,6.60
2018-03-14T01:05:15.690Z,6.60
2018-03-14T01:08:16.931Z,6.60
2018-03-14T01:11:18.205Z,6.60
2018-03-14T01:14:19.473Z,6.60
2018-03-14T01:17:20.747Z,6.60
2018-03-14T01:20:22.025Z,6.50
2018-03-14T01:23:23.247Z,6.40
2018-03-14T01:26:24.503Z,6.50
2018-03-14T01:29:25.774Z,6.50
2018-03-14T01:32:27.035Z,6.40
2018-03-14T01:35:28.284Z,6.40
2018-03-14T01:38:30.280Z,6.30
2018-03-14T01:41:31.533Z,6.30
2018-03-14T01:44:32.812Z,6.40
2018-03-14T01:47:34.075Z,6.30
2018-03-14T01:50:35.322Z,6.40
2018-03-14T01:53:37.325Z,6.40
2018-03-14T01:56:38.629Z,6.40
2018-03-14T01:59:40.638Z,6.30
2018-03-14T02:02:42.664Z,6.30
2018-03-14T02:05:43.910Z,6.30
2018-03-14T02:08:45.161Z,6.40
2018-03-14T02:11:46.383Z,6.50
2018-03-14T02:14:47.630Z,6.50
2018-03-14T02:17:49.622Z,6.60
2018-03-14T02:20:50.867Z,6.50
2018-03-14T02:23:52.132Z,6.60
2018-03-14T02:26:53.363Z,6.60
2018-03-14T02:29:54.597Z,6.60
2018-03-14T02:32:56.597Z,6.70
2018-03-14T02:35:57.851Z,6.60
2018-03-14T02:38:59.926Z,6.60
2018-03-14T02:42:01.994Z,6.60
2018-03-14T02:45:03.289Z,6.60
2018-03-14T02:48:05.239Z,6.70
2018-03-14T02:51:06.487Z,6.70
2018-03-14T02:54:07.719Z,6.70
2018-03-14T02:57:08.983Z,6.80
2018-03-14T03:00:10.272Z,6.70
2018-03-14T03:03:11.555Z,6.80
2018-03-14T03:06:12.798Z,6.70
2018-03-14T03:09:14.042Z,6.70
2018-03-14T03:12:15.298Z,6.70
2018-03-14T03:15:16.590Z,6.70
2018-03-14T03:18:17.817Z,6.70
2018-03-14T03:21:19.069Z,6.80
2018-03-14T03:24:21.042Z,6.80
2018-03-14T03:27:23.023Z,6.80
2018-03-14T03:30:25.027Z,6.80
2018-03-14T03:33:26.289Z,6.80
2018-03-14T03:36:27.558Z,6.80
2018-03-14T03:39:28.825Z,6.80
2018-03-14T03:42:30.069Z,6.80
2018-03-14T03:45:31.310Z,6.80
2018-03-14T03:48:33.287Z,6.80
2018-03-14T03:51:34.558Z,6.80
2018-03-14T03:54:36.546Z,6.70
2018-03-14T03:57:38.555Z,6.80
2018-03-14T04:00:46.895Z,6.80
2018-03-14T04:03:48.133Z,6.80
2018-03-14T04:06:49.378Z,6.80
2018-03-14T04:09:51.394Z,6.70
2018-03-14T04:12:53.613Z,6.70
2018-03-14T04:15:54.847Z,6.70
2018-03-14T04:18:56.078Z,6.70
2018-03-14T04:21:58.043Z,6.70
2018-03-14T04:25:00.042Z,6.80
2018-03-14T04:28:01.299Z,6.80
2018-03-14T04:31:03.337Z,6.80
2018-03-14T04:34:04.574Z,6.80
2018-03-14T04:37:05.799Z,6.70
2018-03-14T04:40:07.819Z,6.70
2018-03-14T04:43:09.044Z,6.60
2018-03-14T04:46:11.035Z,6.70
2018-03-14T04:49:12.282Z,6.70
2018-03-14T04:52:14.285Z,6.70
2018-03-14T04:55:15.533Z,6.70
2018-03-14T04:58:17.545Z,6.70
2018-03-14T05:01:18.759Z,6.70
2018-03-14T05:04:19.991Z,6.70
2018-03-14T05:07:21.204Z,6.70
2018-03-14T05:10:23.191Z,6.70
2018-03-14T05:13:24.403Z,6.60
2018-03-14T05:16:25.665Z,6.70
2018-03-14T05:19:26.896Z,6.60
2018-03-14T05:22:28.132Z,6.70
2018-03-14T05:25:30.102Z,6.70
2018-03-14T05:28:32.090Z,6.70
2018-03-14T05:31:34.074Z,6.70
2018-03-14T05:34:36.070Z,6.70
2018-03-14T05:37:37.325Z,6.70
2018-03-14T05:40:38.625Z,6.70
2018-03-14T05:43:39.849Z,6.60
2018-03-14T05:46:41.103Z,6.70
2018-03-14T05:49:43.071Z,6.70
2018-03-14T05:52:45.058Z,6.70
2018-03-14T05:55:47.086Z,6.70
2018-03-14T05:58:48.354Z,6.60
2018-03-14T06:01:50.313Z,6.60
2018-03-14T06:04:51.556Z,6.60
2018-03-14T06:07:53.542Z,6.60
2018-03-14T06:10:54.780Z,6.60
2018-03-14T06:13:56.763Z,6.60
2018-03-14T06:16:58.752Z,6.60
2018-03-14T06:20:00.725Z,6.60
2018-03-14T06:23:02.745Z,6.60
2018-03-14T06:26:03.963Z,6.70
2018-03-14T06:29:05.959Z,6.60
2018-03-14T06:32:07.930Z,6.60
2018-03-14T06:35:09.926Z,6.60
2018-03-14T06:38:11.913Z,6.60
2018-03-14T06:41:13.202Z,6.60
2018-03-14T06:44:14.453Z,6.60
2018-03-14T06:47:15.730Z,6.70
2018-03-14T06:50:16.966Z,6.60
2018-03-14T06:53:18.199Z,6.70
2018-03-14T06:56:19.430Z,6.70
2018-03-14T06:59:39.550Z,6.60
2018-03-14T07:03:00.287Z,6.60
2018-03-14T07:06:05.530Z,6.60
2018-03-14T07:09:07.291Z,6.60
2018-03-14T07:12:08.534Z,6.80
2018-03-14T07:15:09.758Z,6.80
2018-03-14T07:18:11.719Z,6.70
2018-03-14T07:21:12.954Z,6.70
2018-03-14T07:24:14.957Z,6.70
2018-03-14T07:27:16.209Z,6.70
2018-03-14T07:30:17.428Z,6.70
2018-03-14T07:33:18.715Z,6.80
2018-03-14T07:36:19.991Z,6.80
2018-03-14T07:39:21.903Z,6.90
2018-03-14T07:42:23.902Z,7.00
2018-03-14T07:45:25.121Z,6.90
2018-03-14T07:48:26.374Z,7.00
2018-03-14T07:51:27.622Z,7.00
2018-03-14T07:54:28.882Z,6.90
2018-03-14T07:57:30.125Z,7.00
2018-03-14T08:00:31.359Z,7.10
2018-03-14T08:03:33.327Z,7.00
2018-03-14T08:06:34.623Z,6.90
2018-03-14T08:09:35.884Z,7.00
2018-03-14T08:12:37.911Z,7.10
2018-03-14T08:15:39.222Z,7.00
2018-03-14T08:18:41.250Z,7.20
2018-03-14T08:21:42.526Z,7.20
2018-03-14T08:24:44.525Z,7.40
2018-03-14T08:27:46.622Z,7.40
2018-03-14T08:30:47.897Z,7.40
2018-03-14T08:33:49.875Z,7.30
2018-03-14T08:36:51.844Z,7.30
2018-03-14T08:39:53.868Z,7.20
2018-03-14T08:42:55.112Z,7.20
2018-03-14T08:45:56.338Z,7.30
2018-03-14T08:48:57.582Z,7.20
2018-03-14T08:51:58.818Z,7.30
2018-03-14T08:55:00.066Z,7.30
2018-03-14T08:58:01.300Z,7.30
2018-03-14T09:01:03.290Z,7.10
2018-03-14T09:04:05.243Z,7.20
2018-03-14T09:07:06.498Z,7.10
2018-03-14T09:10:07.725Z,7.40
2018-03-14T09:13:08.980Z,7.50
2018-03-14T09:16:10.199Z,7.60
2018-03-14T09:19:11.448Z,7.50
2018-03-14T09:22:12.681Z,7.60
2018-03-14T09:25:13.958Z,7.50
2018-03-14T09:28:22.233Z,12.40
2018-03-14T09:31:24.214Z,13.00
2018-03-14T09:34:26.165Z,13.40
2018-03-14T09:37:27.430Z,13.40
2018-03-14T09:40:28.653Z,13.30
2018-03-14T09:43:29.901Z,11.60
2018-03-14T09:46:31.117Z,10.10
2018-03-14T09:49:32.462Z,9.20
2018-03-14T09:52:33.751Z,8.80
2018-03-14T09:55:34.999Z,8.50
2018-03-14T09:58:36.282Z,8.40
2018-03-14T10:01:37.534Z,8.20
2018-03-14T10:04:38.762Z,8.10
2018-03-14T10:07:40.027Z,8.20
2018-03-14T10:10:41.283Z,8.10
2018-03-14T10:13:42.544Z,8.00
2018-03-14T10:16:43.809Z,8.10
2018-03-14T10:19:45.110Z,8.20
2018-03-14T10:22:46.340Z,8.20
2018-03-14T10:25:47.667Z,8.50
2018-03-14T10:28:48.818Z,8.60
2018-03-14T10:31:50.114Z,8.90
2018-03-14T10:34:51.348Z,8.60
2018-03-14T10:37:52.587Z,8.40
2018-03-14T10:40:53.884Z,8.30
2018-03-14T10:43:55.089Z,8.30
2018-03-14T10:46:56.314Z,8.40
2018-03-14T10:49:58.294Z,8.10
2018-03-14T10:53:00.266Z,8.20
2018-03-14T10:56:02.308Z,8.20
2018-03-14T10:59:03.515Z,8.20
2018-03-14T11:02:11.664Z,8.30
2018-03-14T11:05:12.894Z,8.30
2018-03-14T11:08:14.115Z,8.60
2018-03-14T11:11:15.339Z,8.70
2018-03-14T11:14:16.597Z,8.80
2018-03-14T11:17:18.547Z,9.20
2018-03-14T11:20:19.817Z,9.20
2018-03-14T11:23:21.059Z,9.20
2018-03-14T11:26:22.286Z,9.10
2018-03-14T11:29:23.499Z,9.00
2018-03-14T11:32:24.765Z,8.90
2018-03-14T11:35:25.994Z,9.00
2018-03-14T11:38:27.286Z,9.00
2018-03-14T11:41:28.526Z,9.30
2018-03-14T11:44:30.520Z,10.10
2018-03-14T11:47:31.736Z,10.10
2018-03-14T11:50:32.997Z,10.60
2018-03-14T11:53:34.245Z,10.80
2018-03-14T11:56:36.248Z,10.90
2018-03-14T11:59:37.501Z,10.90
2018-03-14T12:02:38.795Z,10.60
2018-03-14T12:05:40.058Z,10.20
2018-03-14T12:08:41.284Z,10.10
2018-03-14T12:11:43.260Z,9.70
2018-03-14T12:14:45.263Z,9.70
2018-03-14T12:17:46.515Z,9.70
2018-03-14T12:20:47.798Z,9.60
2018-03-14T12:23:49.042Z,9.60
2018-03-14T12:26:50.293Z,9.50
2018-03-14T12:29:52.313Z,9.60
2018-03-14T12:32:53.554Z,9.60
2018-03-14T12:35:54.786Z,9.60
2018-03-14T12:38:56.065Z,9.50
2018-03-14T12:41:58.016Z,9.40
2018-03-14T12:44:59.277Z,9.40
2018-03-14T12:48:00.511Z,9.60
2018-03-14T12:51:01.748Z,9.50
2018-03-14T12:54:03.052Z,9.40
2018-03-14T12:57:04.987Z,9.70
2018-03-14T13:00:06.208Z,9.70
2018-03-14T13:03:07.446Z,10.20
2018-03-14T13:06:08.678Z,10.50
2018-03-14T13:09:09.982Z,10.80
2018-03-14T13:12:11.214Z,11.20
2018-03-14T13:15:12.458Z,11.40
2018-03-14T13:18:14.499Z,11.70
2018-03-14T13:21:15.757Z,11.70
2018-03-14T13:24:16.996Z,11.70
2018-03-14T13:27:18.311Z,11.80
2018-03-14T13:30:20.287Z,11.90
2018-03-14T13:33:21.531Z,11.90
2018-03-14T13:36:22.748Z,12.00
2018-03-14T13:39:24.009Z,12.00
2018-03-14T13:42:25.286Z,12.00
2018-03-14T13:45:26.504Z,12.10
2018-03-14T13:48:27.749Z,12.20
2018-03-14T13:51:28.995Z,12.30
2018-03-14T13:54:30.234Z,12.40
2018-03-14T13:57:32.288Z,12.50
2018-03-14T14:00:34.243Z,12.60
2018-03-14T14:03:35.463Z,12.60
2018-03-14T14:06:36.698Z,12.50
2018-03-14T14:09:38.733Z,12.80
2018-03-14T14:12:39.922Z,12.80
2018-03-14T14:15:41.212Z,12.80
2018-03-14T14:18:42.457Z,13.00
2018-03-14T14:21:44.485Z,12.90
2018-03-14T14:24:45.732Z,12.90
2018-03-14T14:27:46.984Z,12.90
2018-03-14T14:30:48.191Z,12.90
2018-03-14T14:33:50.202Z,12.90
2018-03-14T14:36:52.188Z,12.90
2018-03-14T14:39:54.185Z,13.00
2018-03-14T14:42:55.414Z,13.00
2018-03-14T14:45:56.650Z,13.20
2018-03-14T14:48:57.915Z,13.40
2018-03-14T14:51:59.180Z,13.30
2018-03-14T14:55:00.414Z,13.20
2018-03-14T14:58:01.695Z,13.20
2018-03-14T15:01:02.951Z,12.90
2018-03-14T15:04:04.188Z,13.00
2018-03-14T15:07:05.429Z,13.00
2018-03-14T15:10:07.434Z,13.30
2018-03-14T15:13:08.677Z,13.20
2018-03-14T15:16:10.682Z,13.30
2018-03-14T15:19:11.894Z,13.20
2018-03-14T15:22:13.128Z,13.40
2018-03-14T15:25:14.371Z,13.20
2018-03-14T15:28:15.605Z,13.00
2018-03-14T15:31:17.591Z,13.00
2018-03-14T15:34:19.563Z,12.70
2018-03-14T15:37:21.516Z,12.80
2018-03-14T15:40:22.750Z,12.70
2018-03-14T15:43:23.974Z,12.60
2018-03-14T15:46:25.985Z,12.40
2018-03-14T15:49:27.219Z,12.40
2018-03-14T15:52:29.221Z,12.40
2018-03-14T15:55:30.465Z,12.30
2018-03-14T15:58:32.736Z,11.90
2018-03-14T16:01:34.719Z,11.80
2018-03-14T16:04:36.720Z,11.60
2018-03-14T16:07:38.686Z,11.50
2018-03-14T16:10:40.687Z,11.40
2018-03-14T16:13:41.943Z,11.30
2018-03-14T16:16:43.198Z,11.10
2018-03-14T16:19:45.177Z,10.80
2018-03-14T16:22:47.181Z,10.70
2018-03-14T16:25:48.420Z,10.70
2018-03-14T16:28:50.393Z,10.50
2018-03-14T16:31:52.378Z,10.40
2018-03-14T16:34:54.374Z,10.30
2018-03-14T16:37:55.604Z,10.30
2018-03-14T16:40:56.873Z,10.20
2018-03-14T16:43:58.116Z,10.20
2018-03-14T16:46:59.355Z,10.10
2018-03-14T16:50:00.635Z,10.10
2018-03-14T16:53:01.896Z,9.90
2018-03-14T16:56:03.160Z,9.80
2018-03-14T16:59:04.475Z,9.70
2018-03-14T17:02:05.739Z,9.70
2018-03-14T17:05:07.026Z,9.60
2018-03-14T17:08:08.286Z,9.50
2018-03-14T17:11:09.578Z,9.50
2018-03-14T17:14:10.850Z,9.50
2018-03-14T17:17:12.143Z,9.40
2018-03-14T17:20:13.355Z,9.30
2018-03-14T17:23:15.078Z,9.30
2018-03-14T17:26:16.419Z,9.20
2018-03-14T17:29:17.666Z,9.20
2018-03-14T17:32:18.942Z,9.10
2018-03-14T17:35:20.223Z,9.00
2018-03-14T17:38:21.550Z,8.90
2018-03-14T17:41:22.811Z,9.00
2018-03-14T17:44:24.058Z,8.90
2018-03-14T17:47:25.302Z,8.80
2018-03-14T17:50:27.335Z,8.60
2018-03-14T17:53:28.588Z,8.60
2018-03-14T17:56:29.820Z,8.60
2018-03-14T17:59:31.123Z,8.60
2018-03-14T18:02:32.372Z,8.50
2018-03-14T18:05:33.592Z,8.50
2018-03-14T18:08:34.890Z,8.40
2018-03-14T18:11:36.355Z,8.40
2018-03-14T18:14:37.604Z,8.50
2018-03-14T18:17:38.849Z,8.30
2018-03-14T18:20:40.851Z,8.40
2018-03-14T18:23:42.063Z,8.30
2018-03-14T18:26:43.318Z,8.30
2018-03-14T18:29:44.570Z,8.30
2018-03-14T18:32:45.784Z,8.30
2018-03-14T18:35:48.242Z,8.30
2018-03-14T18:38:50.268Z,8.20
2018-03-14T18:41:52.135Z,8.20
2018-03-14T18:44:53.399Z,8.10
2018-03-14T18:47:55.163Z,8.00
2018-03-14T18:50:57.125Z,7.80
2018-03-14T18:53:58.687Z,7.90
2018-03-14T18:57:00.510Z,7.70
2018-03-14T19:00:02.358Z,7.60
2018-03-14T19:03:04.865Z,7.70
2018-03-14T19:06:06.147Z,7.80
2018-03-14T19:09:07.521Z,8.00
2018-03-14T19:12:08.770Z,7.90
2018-03-14T19:15:10.664Z,7.90
2018-03-14T19:18:11.915Z,7.80
2018-03-14T19:21:13.140Z,7.70
2018-03-14T19:24:14.402Z,7.70
2018-03-14T19:27:15.727Z,7.70
2018-03-14T19:30:16.976Z,7.70
2018-03-14T19:33:18.225Z,7.50
2018-03-14T19:36:19.834Z,7.30
2018-03-14T19:39:21.094Z,7.50
2018-03-14T19:42:22.603Z,7.50
2018-03-14T19:45:23.934Z,7.50
2018-03-14T19:48:25.339Z,7.40
2018-03-14T19:51:27.308Z,7.40
2018-03-14T19:54:28.766Z,7.40
2018-03-14T19:57:30.010Z,7.50
2018-03-14T20:00:31.266Z,7.40
2018-03-14T20:03:32.566Z,7.20
2018-03-14T20:06:33.814Z,7.20
2018-03-14T20:09:35.051Z,7.10
2018-03-14T20:12:36.562Z,7.10
2018-03-14T20:15:37.933Z,7.00
2018-03-14T20:18:39.395Z,6.90
2018-03-14T20:21:40.827Z,7.00
2018-03-14T20:24:49.410Z,7.00
2018-03-14T20:27:51.427Z,6.80
2018-03-14T20:30:52.909Z,6.70
2018-03-14T20:33:54.142Z,6.80
2018-03-14T20:36:55.642Z,6.90
2018-03-14T20:39:56.892Z,6.80
2018-03-14T20:42:58.139Z,6.70
2018-03-14T20:45:59.368Z,6.70
2018-03-14T20:49:00.622Z,6.60
2018-03-14T20:52:01.992Z,6.40
2018-03-14T20:55:03.276Z,6.30
2018-03-14T20:58:05.420Z,6.40
2018-03-14T21:01:06.674Z,6.40
2018-03-14T21:04:08.251Z,6.20
2018-03-14T21:07:09.536Z,6.10
2018-03-14T21:10:10.856Z,6.00
2018-03-14T21:13:12.118Z,6.20
2018-03-14T21:16:14.380Z,6.20
2018-03-14T21:19:16.576Z,6.20
2018-03-14T21:22:17.806Z,6.20
2018-03-14T21:25:19.190Z,6.00
2018-03-14T21:28:20.452Z,6.30
2018-03-14T21:31:22.689Z,6.20
2018-03-14T21:34:23.947Z,6.20
2018-03-14T21:37:25.374Z,6.20
2018-03-14T21:40:26.900Z,6.10
2018-03-14T21:43:28.269Z,6.10
2018-03-14T21:46:29.689Z,5.90
2018-03-14T21:49:31.097Z,6.30
2018-03-14T21:52:33.186Z,6.20
2018-03-14T21:55:38.589Z,6.10
2018-03-14T21:58:39.843Z,6.20
2018-03-14T22:01:41.843Z,6.10
2018-03-14T22:04:43.212Z,6.10
2018-03-14T22:07:44.506Z,6.10
2018-03-14T22:10:45.725Z,6.10
2018-03-14T22:13:46.995Z,5.90
2018-03-14T22:16:48.211Z,5.90
2018-03-14T22:19:49.743Z,6.00
2018-03-14T22:22:50.938Z,5.90
2018-03-14T22:25:52.180Z,6.00
2018-03-14T22:28:53.415Z,6.00
2018-03-14T22:31:54.670Z,6.10
2018-03-14T22:34:56.090Z,6.00
2018-03-14T22:37:57.436Z,6.00
2018-03-14T22:40:58.680Z,6.00
2018-03-14T22:43:59.971Z,5.80
2018-03-14T22:47:01.275Z,5.90
2018-03-14T22:50:02.536Z,5.90
2018-03-14T22:53:04.610Z,5.80
2018-03-14T22:56:05.925Z,5.80
2018-03-14T22:59:07.204Z,5.90
2018-03-14T23:02:08.522Z,5.90
2018-03-14T23:05:10.552Z,5.80
2018-03-14T23:08:11.889Z,5.80
2018-03-14T23:11:13.175Z,5.80
2018-03-14T23:14:14.441Z,5.70
2018-03-14T23:17:15.728Z,5.60
2018-03-14T23:20:17.004Z,5.60
2018-03-14T23:23:19.011Z,5.40
2018-03-14T23:26:20.293Z,5.30
2018-03-14T23:29:21.525Z,5.60
2018-03-14T23:32:23.539Z,5.50
2018-03-14T23:35:24.803Z,5.50
2018-03-14T23:38:26.076Z,5.60
2018-03-14T23:41:27.331Z,5.60
2018-03-14T23:44:28.632Z,5.50
2018-03-14T23:47:29.899Z,5.50
2018-03-14T23:50:31.266Z,5.50
2018-03-14T23:53:32.500Z,5.50
2018-03-14T23:56:34.506Z,5.60
2018-03-14T23:59:35.769Z,5.50
